Time;durP1;ratioP1;P1;durP2;ratioP2;P2;SDS_P1;SDS_P2;PMS_P1;PMS_P2;Temp;Humidity;BMP_temperature;BMP_pressure;BME280_temperature;BME280_humidity;BME280_pressure;Samples;Min_cycle;Max_cycle;Signal;HPM_P1;HPM_P2
2023/07/12 00:00:50;;;;;;;8.38;4.80;;;17.30;99.90;;;;;;5075113;28;20043;-59
2023/07/12 00:03:17;;;;;;;7.25;4.68;;;17.10;99.90;;;;;;5074882;28;20043;-59
2023/07/12 00:05:44;;;;;;;7.90;4.85;;;17.60;99.90;;;;;;5075525;28;20036;-60
2023/07/12 00:08:18;;;;;;;10.75;5.28;;;17.30;99.90;;;;;;5076179;28;20586;-59
2023/07/12 00:10:45;;;;;;;7.35;4.65;;;17.30;99.90;;;;;;5076229;28;20068;-60
2023/07/12 00:13:11;;;;;;;10.60;4.93;;;17.30;99.90;;;;;;5075046;28;20044;-59
2023/07/12 00:15:38;;;;;;;8.30;4.80;;;17.30;99.90;;;;;;5074374;28;20036;-59
2023/07/12 00:18:18;;;;;;;10.48;5.40;;;17.40;99.90;;;;;;5074753;28;20036;-59
2023/07/12 00:20:44;;;;;;;8.68;5.40;;;17.30;99.90;;;;;;5076362;28;20066;-59
2023/07/12 00:23:12;;;;;;;8.77;4.93;;;17.30;99.90;;;;;;5075295;28;20491;-59
2023/07/12 00:25:38;;;;;;;9.52;5.13;;;17.10;99.90;;;;;;5075731;28;20039;-59
2023/07/12 00:28:35;;;;;;;7.32;4.85;;;17.50;99.90;;;;;;5075567;28;20390;-59
2023/07/12 00:31:01;;;;;;;7.40;5.10;;;17.10;99.90;;;;;;5072026;28;20040;-59
2023/07/12 00:33:27;;;;;;;9.63;5.47;;;17.20;99.90;;;;;;5075593;28;20070;-59
2023/07/12 00:35:52;;;;;;;8.77;4.90;;;17.10;99.90;;;;;;5057616;28;20036;-59
2023/07/12 00:38:23;;;;;;;11.48;5.13;;;17.10;99.90;;;;;;5076312;28;20070;-60
2023/07/12 00:41:08;;;;;;;7.80;4.70;;;16.10;99.90;;;;;;5077002;28;20048;-60
2023/07/12 00:43:38;;;;;;;8.57;4.97;;;17.50;99.90;;;;;;5075325;28;20432;-59
2023/07/12 00:46:18;;;;;;;8.27;4.82;;;17.00;99.90;;;;;;5075325;28;20036;-59
2023/07/12 00:48:47;;;;;;;9.63;5.20;;;16.90;99.90;;;;;;5075935;28;20032;-59
2023/07/12 00:51:34;;;;;;;9.98;4.93;;;17.10;99.90;;;;;;5056608;28;20093;-59
2023/07/12 00:54:00;;;;;;;10.07;5.00;;;17.00;99.90;;;;;;5075742;28;20703;-60
2023/07/12 00:56:27;;;;;;;10.32;5.28;;;16.70;99.90;;;;;;5076224;28;20043;-60
2023/07/12 00:58:57;;;;;;;10.00;4.90;;;16.40;99.90;;;;;;5074786;28;20104;-60
2023/07/12 01:01:26;;;;;;;7.50;4.77;;;17.00;99.90;;;;;;5075088;28;20040;-61
2023/07/12 01:03:54;;;;;;;6.75;4.38;;;16.70;99.90;;;;;;5074144;28;20451;-60
2023/07/12 01:06:20;;;;;;;11.32;4.68;;;17.00;99.90;;;;;;5074632;28;20044;-59
2023/07/12 01:08:46;;;;;;;11.27;4.72;;;17.00;99.90;;;;;;5076926;28;20093;-59
2023/07/12 01:11:14;;;;;;;9.65;4.65;;;17.10;99.90;;;;;;5077226;28;20510;-60
2023/07/12 01:13:45;;;;;;;7.65;4.93;;;16.80;99.90;;;;;;5073783;28;20523;-59
2023/07/12 01:16:17;;;;;;;8.43;4.88;;;17.00;99.90;;;;;;5074447;28;20067;-60
2023/07/12 01:18:43;;;;;;;7.55;4.65;;;16.90;99.90;;;;;;5073586;28;20036;-59
2023/07/12 01:21:16;;;;;;;10.13;4.50;;;16.90;99.90;;;;;;5073892;28;20501;-60
2023/07/12 01:23:43;;;;;;;11.15;4.70;;;16.80;99.90;;;;;;5074061;28;20040;-59
2023/07/12 01:26:22;;;;;;;9.52;4.47;;;16.70;99.90;;;;;;5073506;28;20043;-59
2023/07/12 01:28:54;;;;;;;8.63;4.55;;;17.00;99.90;;;;;;5074115;28;20048;-60
2023/07/12 01:31:20;;;;;;;7.60;4.68;;;16.80;99.90;;;;;;5073715;28;20040;-60
2023/07/12 01:33:46;;;;;;;15.68;5.10;;;16.80;99.90;;;;;;5073286;28;20112;-60
2023/07/12 01:36:12;;;;;;;10.23;5.15;;;16.90;99.90;;;;;;5074365;28;20396;-59
2023/07/12 01:38:38;;;;;;;9.57;5.00;;;16.50;99.90;;;;;;5056315;28;20051;-60
2023/07/12 01:41:03;;;;;;;10.00;4.30;;;16.70;99.90;;;;;;5076578;28;20040;-60
2023/07/12 01:43:30;;;;;;;9.15;4.68;;;16.80;99.90;;;;;;5074068;28;20039;-60
2023/07/12 01:45:56;;;;;;;11.18;4.75;;;16.80;99.90;;;;;;5074478;28;20039;-60
2023/07/12 01:48:22;;;;;;;7.22;4.78;;;16.80;99.90;;;;;;5073860;28;20719;-59
2023/07/12 01:50:48;;;;;;;8.65;4.95;;;16.50;99.90;;;;;;5075220;28;20462;-60
2023/07/12 01:53:14;;;;;;;11.13;5.38;;;16.60;99.90;;;;;;5073520;28;20048;-60
2023/07/12 01:55:42;;;;;;;10.50;4.95;;;16.70;99.90;;;;;;5074708;28;20032;-59
2023/07/12 01:58:08;;;;;;;9.70;4.60;;;16.70;99.90;;;;;;5073802;28;20462;-59
2023/07/12 02:00:33;;;;;;;9.70;4.93;;;16.50;99.90;;;;;;5074282;28;20048;-60
2023/07/12 02:02:59;;;;;;;9.18;5.13;;;16.60;99.90;;;;;;5072767;28;20051;-60
2023/07/12 02:05:25;;;;;;;9.07;5.38;;;16.50;99.90;;;;;;5072619;28;20050;-60
2023/07/12 02:07:52;;;;;;;8.55;5.10;;;16.50;99.90;;;;;;5054822;28;20079;-60
2023/07/12 02:10:20;;;;;;;12.73;5.05;;;16.50;99.90;;;;;;5055877;28;20048;-60
2023/07/12 02:12:46;;;;;;;11.90;4.95;;;16.50;99.90;;;;;;5074184;28;20913;-60
2023/07/12 02:15:13;;;;;;;11.68;4.60;;;16.70;99.90;;;;;;5054326;28;20135;-59
2023/07/12 02:17:39;;;;;;;9.85;5.78;;;16.40;99.90;;;;;;5072764;28;20114;-60
2023/07/12 02:20:07;;;;;;;12.60;5.35;;;16.60;99.90;;;;;;5054151;28;20044;-60
2023/07/12 02:22:34;;;;;;;9.30;5.05;;;16.80;99.90;;;;;;5072348;28;20040;-60
2023/07/12 02:25:00;;;;;;;10.65;4.82;;;16.60;99.90;;;;;;5072223;28;20457;-60
2023/07/12 02:27:26;;;;;;;11.73;5.20;;;16.60;99.90;;;;;;5073079;28;20059;-60
2023/07/12 02:29:52;;;;;;;10.65;5.25;;;16.50;99.90;;;;;;5072208;28;20500;-61
2023/07/12 02:32:20;;;;;;;10.52;5.40;;;16.70;99.90;;;;;;5071958;28;20055;-60
2023/07/12 02:34:47;;;;;;;11.57;4.95;;;16.80;99.90;;;;;;5071909;28;20032;-61
2023/07/12 02:37:13;;;;;;;18.92;5.93;;;16.50;99.90;;;;;;5072305;28;20056;-59
2023/07/12 02:39:39;;;;;;;12.88;6.03;;;16.70;99.90;;;;;;5056155;28;20138;-60
2023/07/12 02:42:06;;;;;;;15.65;5.50;;;16.50;99.90;;;;;;5072414;28;20062;-61
2023/07/12 02:44:32;;;;;;;21.00;6.35;;;16.60;99.90;;;;;;5071884;28;20059;-62
2023/07/12 02:46:57;;;;;;;18.52;6.05;;;16.40;99.90;;;;;;5073306;28;20035;-62
2023/07/12 02:49:23;;;;;;;22.25;6.63;;;16.60;99.90;;;;;;5072613;28;20157;-63
2023/07/12 02:51:49;;;;;;;17.80;6.05;;;16.20;99.90;;;;;;5073005;28;20040;-62
2023/07/12 02:54:15;;;;;;;14.40;5.38;;;16.40;99.90;;;;;;5055481;28;20029;-61
2023/07/12 02:56:40;;;;;;;14.52;5.45;;;16.60;99.90;;;;;;5073520;28;20058;-61
2023/07/12 02:59:06;;;;;;;18.35;5.22;;;16.50;99.90;;;;;;5073812;28;20047;-61
2023/07/12 03:01:32;;;;;;;13.20;5.88;;;16.40;99.90;;;;;;5073448;28;20702;-61
2023/07/12 03:03:58;;;;;;;13.70;5.63;;;16.40;99.90;;;;;;5073041;28;20055;-61
2023/07/12 03:06:23;;;;;;;13.68;5.45;;;16.20;99.90;;;;;;5072693;28;20048;-61
2023/07/12 03:08:49;;;;;;;20.30;5.50;;;16.60;99.90;;;;;;5074107;28;20532;-62
2023/07/12 03:11:15;;;;;;;16.38;5.47;;;16.30;99.90;;;;;;5073709;28;20051;-61
2023/07/12 03:13:41;;;;;;;20.45;6.18;;;16.40;99.90;;;;;;5072762;28;20296;-61
2023/07/12 03:16:08;;;;;;;13.27;5.22;;;16.40;99.90;;;;;;5072874;28;20454;-61
2023/07/12 03:18:34;;;;;;;14.95;5.28;;;16.60;99.90;;;;;;5073031;28;20040;-62
2023/07/12 03:21:05;;;;;;;12.68;5.50;;;16.40;99.90;;;;;;5072336;28;20051;-62
2023/07/12 03:23:33;;;;;;;15.18;5.47;;;16.50;99.90;;;;;;5071738;28;20514;-61
2023/07/12 03:25:59;;;;;;;17.40;6.15;;;16.30;99.90;;;;;;5074612;28;20130;-61
2023/07/12 03:28:26;;;;;;;15.60;6.22;;;16.40;99.90;;;;;;5075754;28;20129;-61
2023/07/12 03:31:06;;;;;;;17.20;5.93;;;16.30;99.90;;;;;;5075889;28;20303;-61
2023/07/12 03:33:33;;;;;;;16.27;6.07;;;16.50;99.90;;;;;;5075674;28;20131;-60
2023/07/12 03:35:59;;;;;;;20.23;5.95;;;16.40;99.90;;;;;;5075665;28;20052;-60
2023/07/12 03:38:25;;;;;;;15.38;5.85;;;16.50;99.90;;;;;;5075276;28;20508;-60
2023/07/12 03:40:59;;;;;;;16.75;6.00;;;16.30;99.90;;;;;;5075995;28;20065;-59
2023/07/12 03:43:25;;;;;;;16.17;6.30;;;16.50;99.90;;;;;;5075484;28;20435;-60
2023/07/12 03:45:53;;;;;;;19.55;6.10;;;16.50;99.90;;;;;;5075716;28;20227;-59
2023/07/12 03:48:20;;;;;;;13.05;5.72;;;16.40;99.90;;;;;;5056933;28;20812;-58
2023/07/12 03:50:50;;;;;;;25.80;5.82;;;16.40;99.90;;;;;;5075494;28;20070;-60
2023/07/12 03:53:17;;;;;;;15.95;4.95;;;16.30;99.90;;;;;;5057266;28;20052;-60
2023/07/12 03:55:45;;;;;;;19.10;6.32;;;16.60;99.90;;;;;;5074864;28;20855;-60
2023/07/12 03:58:14;;;;;;;16.92;5.63;;;16.40;99.90;;;;;;5074946;28;20055;-60
2023/07/12 04:00:44;;;;;;;15.05;5.50;;;16.40;99.90;;;;;;5074296;28;20083;-60
2023/07/12 04:03:11;;;;;;;17.52;5.47;;;16.40;99.90;;;;;;5074427;28;20055;-60
2023/07/12 04:05:38;;;;;;;17.67;5.93;;;16.60;99.90;;;;;;5074081;28;20044;-60
2023/07/12 04:08:04;;;;;;;20.75;5.75;;;16.30;99.90;;;;;;5057332;28;20097;-60
2023/07/12 04:10:31;;;;;;;19.75;5.65;;;16.50;99.90;;;;;;5076097;28;20043;-60
2023/07/12 04:12:56;;;;;;;18.33;5.43;;;16.40;99.90;;;;;;5074598;28;20072;-60
2023/07/12 04:15:22;;;;;;;21.40;6.82;;;16.50;99.90;;;;;;5074252;28;20181;-60
2023/07/12 04:17:48;;;;;;;23.00;6.50;;;14.80;99.90;;;;;;5076788;28;20028;-60
2023/07/12 04:20:14;;;;;;;16.77;5.57;;;16.20;99.90;;;;;;5075699;28;20043;-61
2023/07/12 04:22:40;;;;;;;19.95;5.63;;;16.40;99.90;;;;;;5075904;28;20454;-60
2023/07/12 04:25:08;;;;;;;24.63;5.30;;;16.50;99.90;;;;;;5074938;28;20048;-61
2023/07/12 04:27:37;;;;;;;19.38;6.20;;;16.20;99.90;;;;;;5075624;28;20442;-60
2023/07/12 04:30:08;;;;;;;21.52;5.85;;;16.50;99.90;;;;;;5057374;28;20155;-61
2023/07/12 04:32:34;;;;;;;20.30;5.70;;;16.40;99.90;;;;;;5074677;28;20048;-61
2023/07/12 04:35:01;;;;;;;19.30;5.93;;;16.20;99.90;;;;;;5075515;28;20166;-61
2023/07/12 04:37:27;;;;;;;22.88;5.80;;;16.50;99.90;;;;;;5074265;28;20556;-60
2023/07/12 04:39:52;;;;;;;20.23;5.47;;;16.30;99.90;;;;;;5075134;28;20119;-61
2023/07/12 04:42:19;;;;;;;20.85;5.55;;;14.20;99.90;;;;;;5074892;28;20046;-61
2023/07/12 04:44:44;;;;;;;16.45;5.47;;;16.40;99.90;;;;;;5074080;28;20601;-60
2023/07/12 04:47:10;;;;;;;24.10;5.60;;;16.30;99.90;;;;;;5076522;28;20036;-60
2023/07/12 04:49:36;;;;;;;24.42;6.40;;;16.50;99.90;;;;;;5055809;28;20059;-60
2023/07/12 04:52:04;;;;;;;24.58;7.10;;;16.60;99.90;;;;;;5073470;28;20310;-60
2023/07/12 04:54:32;;;;;;;22.23;6.05;;;17.00;99.90;;;;;;5073556;28;20055;-60
2023/07/12 04:56:58;;;;;;;27.33;7.07;;;16.50;99.90;;;;;;5075064;28;20040;-60
2023/07/12 04:59:24;;;;;;;17.30;6.32;;;16.60;99.90;;;;;;5073332;28;20527;-61
2023/07/12 05:01:49;;;;;;;20.73;6.47;;;16.70;99.90;;;;;;5073957;28;20044;-60
2023/07/12 05:04:15;;;;;;;20.75;7.03;;;16.60;99.90;;;;;;5073562;28;20127;-61
2023/07/12 05:06:41;;;;;;;20.10;6.47;;;16.60;99.90;;;;;;5074807;28;20182;-61
2023/07/12 05:09:07;;;;;;;22.60;5.97;;;16.30;99.90;;;;;;5057652;28;20102;-61
2023/07/12 05:11:32;;;;;;;22.63;6.63;;;16.60;99.90;;;;;;5075614;28;20094;-61
2023/07/12 05:13:58;;;;;;;24.67;6.40;;;16.80;99.90;;;;;;5073482;28;20040;-61
2023/07/12 05:16:24;;;;;;;29.02;7.45;;;16.90;99.90;;;;;;5056012;28;20079;-61
2023/07/12 05:18:50;;;;;;;17.85;5.57;;;16.70;99.90;;;;;;5072942;28;20115;-61
2023/07/12 05:21:17;;;;;;;24.52;6.47;;;16.80;99.90;;;;;;5074146;28;20036;-60
2023/07/12 05:23:42;;;;;;;26.98;6.25;;;16.80;99.90;;;;;;5073255;28;20606;-60
2023/07/12 05:26:08;;;;;;;17.27;5.32;;;17.00;99.90;;;;;;5074319;28;20048;-61
2023/07/12 05:28:35;;;;;;;21.23;5.55;;;17.20;99.90;;;;;;5072554;28;20245;-60
2023/07/12 05:31:11;;;;;;;17.60;4.60;;;17.30;99.90;;;;;;5055790;28;20051;-60
2023/07/12 05:33:41;;;;;;;23.05;5.40;;;17.30;99.90;;;;;;5073230;28;20051;-61
2023/07/12 05:36:07;;;;;;;21.23;5.30;;;17.40;99.90;;;;;;5073961;28;20163;-60
2023/07/12 05:38:32;;;;;;;19.60;4.85;;;17.60;99.90;;;;;;5074287;28;20118;-60
2023/07/12 05:40:59;;;;;;;15.82;4.47;;;17.50;99.90;;;;;;5075544;28;20475;-61
2023/07/12 05:43:25;;;;;;;19.92;5.32;;;17.70;99.90;;;;;;5073546;28;20072;-61
2023/07/12 05:45:52;;;;;;;17.42;6.35;;;17.40;99.90;;;;;;5074938;28;20131;-61
2023/07/12 05:48:18;;;;;;;14.77;5.38;;;17.50;99.90;;;;;;5073492;28;20044;-61
2023/07/12 05:50:50;;;;;;;21.27;5.88;;;17.40;99.90;;;;;;5073572;28;20576;-61
2023/07/12 05:53:15;;;;;;;18.50;4.15;;;17.10;99.90;;;;;;5055264;28;20040;-60
2023/07/12 05:55:41;;;;;;;23.92;5.05;;;17.20;99.90;;;;;;5073248;28;20066;-60
2023/07/12 05:58:07;;;;;;;20.20;5.22;;;17.30;99.90;;;;;;5072859;28;20036;-60
2023/07/12 06:00:32;;;;;;;17.13;5.03;;;17.50;99.90;;;;;;5073170;28;20040;-61
2023/07/12 06:02:58;;;;;;;20.98;5.05;;;17.40;99.90;;;;;;5071915;28;20044;-60
2023/07/12 06:05:24;;;;;;;18.83;5.28;;;17.40;99.90;;;;;;5072525;28;20032;-60
2023/07/12 06:07:50;;;;;;;20.85;5.05;;;17.50;99.90;;;;;;5073541;28;20044;-60
2023/07/12 06:10:16;;;;;;;16.48;4.32;;;17.50;99.90;;;;;;5074440;28;20181;-62
2023/07/12 06:12:43;;;;;;;21.23;4.50;;;17.70;99.90;;;;;;5071480;28;20250;-62
2023/07/12 06:15:09;;;;;;;20.52;5.22;;;17.60;99.90;;;;;;5071879;28;20101;-61
2023/07/12 06:17:35;;;;;;;17.58;4.85;;;17.80;99.90;;;;;;5055166;28;20694;-62
2023/07/12 06:20:00;;;;;;;22.23;5.25;;;17.60;99.90;;;;;;5072906;28;20046;-63
2023/07/12 06:22:26;;;;;;;19.75;4.70;;;17.90;99.90;;;;;;5072523;28;20051;-62
2023/07/12 06:24:52;;;;;;;15.63;4.55;;;18.20;99.90;;;;;;5072320;28;20313;-62
2023/07/12 06:27:18;;;;;;;23.38;5.38;;;18.90;99.90;;;;;;5072737;28;20040;-61
2023/07/12 06:29:48;;;;;;;17.45;4.55;;;19.10;99.90;;;;;;5072250;28;20046;-61
2023/07/12 06:32:14;;;;;;;18.02;4.80;;;19.20;99.90;;;;;;5072376;28;20638;-62
2023/07/12 06:34:40;;;;;;;17.33;5.28;;;18.90;99.90;;;;;;5072964;28;20052;-62
2023/07/12 06:37:08;;;;;;;21.55;5.43;;;19.00;99.90;;;;;;5072487;28;20101;-62
2023/07/12 06:39:35;;;;;;;16.30;5.03;;;19.10;99.90;;;;;;5073436;28;20048;-62
2023/07/12 06:42:00;;;;;;;16.70;5.25;;;19.40;99.90;;;;;;5073802;28;20434;-62
2023/07/12 06:44:26;;;;;;;21.20;5.65;;;19.30;99.90;;;;;;5073015;28;20044;-62
2023/07/12 06:46:52;;;;;;;15.93;4.88;;;19.30;99.90;;;;;;5072614;28;20050;-62
2023/07/12 06:49:18;;;;;;;17.17;4.32;;;19.20;99.90;;;;;;5073165;28;20051;-63
2023/07/12 06:51:46;;;;;;;20.95;4.78;;;19.20;99.90;;;;;;5073443;28;20054;-62
2023/07/12 06:54:16;;;;;;;17.38;4.70;;;19.10;99.90;;;;;;5073077;28;20102;-62
2023/07/12 06:56:43;;;;;;;14.48;3.92;;;18.90;99.90;;;;;;5074244;28;20051;-62
2023/07/12 06:59:09;;;;;;;17.48;4.18;;;18.90;99.90;;;;;;5074046;28;20101;-63
2023/07/12 07:01:36;;;;;;;18.25;4.65;;;19.10;99.90;;;;;;5077616;28;20043;-62
2023/07/12 07:04:03;;;;;;;15.07;3.63;;;19.30;99.90;;;;;;5059267;28;20511;-62
2023/07/12 07:06:29;;;;;;;19.30;4.13;;;19.60;99.90;;;;;;5077862;28;20380;-62
2023/07/12 07:08:55;;;;;;;15.20;3.90;;;20.20;99.90;;;;;;5078083;28;20048;-62
2023/07/12 07:11:20;;;;;;;18.05;4.35;;;20.30;99.90;;;;;;5079596;28;20393;-62
2023/07/12 07:13:47;;;;;;;17.35;4.93;;;20.90;99.90;;;;;;5078545;28;20077;-62
2023/07/12 07:16:13;;;;;;;18.25;4.60;;;21.50;99.90;;;;;;5059596;28;20515;-61
2023/07/12 07:18:39;;;;;;;14.27;3.50;;;20.50;99.90;;;;;;5076808;28;20244;-62
2023/07/12 07:21:05;;;;;;;14.00;3.50;;;20.60;99.90;;;;;;5077053;28;20443;-62
2023/07/12 07:23:31;;;;;;;14.32;3.75;;;21.10;99.90;;;;;;5076354;28;20050;-61
2023/07/12 07:26:09;;;;;;;16.58;3.95;;;21.80;99.90;;;;;;5075483;28;20032;-61
2023/07/12 07:28:35;;;;;;;15.85;3.53;;;22.40;99.90;;;;;;5075858;28;20532;-61
2023/07/12 07:31:02;;;;;;;14.77;3.58;;;23.50;99.90;;;;;;5075631;28;20040;-61
2023/07/12 07:33:27;;;;;;;12.70;3.10;;;23.70;99.90;;;;;;5074459;28;20040;-61
2023/07/12 07:35:55;;;;;;;17.10;4.10;;;23.00;99.90;;;;;;5075132;28;20039;-61
2023/07/12 07:38:25;;;;;;;18.08;3.95;;;22.10;99.90;;;;;;5074789;28;20455;-61
2023/07/12 07:40:51;;;;;;;12.53;3.33;;;21.70;99.90;;;;;;5076431;28;20044;-60
2023/07/12 07:43:17;;;;;;;12.80;2.83;;;21.90;99.90;;;;;;5075072;28;20803;-61
2023/07/12 07:45:43;;;;;;;12.93;3.20;;;21.50;99.90;;;;;;5075552;28;20753;-61
2023/07/12 07:48:10;;;;;;;9.35;2.92;;;21.30;99.90;;;;;;5074911;28;20132;-61
2023/07/12 07:50:36;;;;;;;10.13;2.90;;;20.70;99.90;;;;;;5074988;28;20104;-61
2023/07/12 07:53:03;;;;;;;10.43;2.28;;;21.20;99.90;;;;;;5074725;28;20496;-61
2023/07/12 07:55:29;;;;;;;9.10;2.95;;;21.90;99.90;;;;;;5074692;28;20416;-60
2023/07/12 07:57:54;;;;;;;11.25;3.08;;;22.20;99.90;;;;;;5074906;28;21403;-61
2023/07/12 08:00:20;;;;;;;8.70;2.92;;;22.00;99.90;;;;;;5075529;28;20048;-62
2023/07/12 08:02:46;;;;;;;12.15;2.60;;;21.80;99.90;;;;;;5074414;28;20297;-59
2023/07/12 08:05:14;;;;;;;10.07;2.33;;;21.10;99.90;;;;;;5074073;28;20047;-59
2023/07/12 08:07:44;;;;;;;11.15;2.38;;;20.30;99.90;;;;;;5074034;28;20516;-59
2023/07/12 08:10:14;;;;;;;7.60;2.13;;;19.80;99.90;;;;;;5074999;28;20036;-58
2023/07/12 08:12:40;;;;;;;7.78;2.20;;;19.30;99.90;;;;;;5073224;28;20126;-58
2023/07/12 08:15:06;;;;;;;7.55;2.70;;;19.00;99.90;;;;;;5074546;28;20055;-59
2023/07/12 08:17:32;;;;;;;10.18;2.75;;;18.90;99.90;;;;;;5056324;28;20044;-59
2023/07/12 08:19:58;;;;;;;12.90;2.80;;;18.60;99.90;;;;;;5073462;28;20051;-59
2023/07/12 08:22:25;;;;;;;10.32;2.80;;;18.40;99.90;;;;;;5074066;28;20097;-60
2023/07/12 08:24:51;;;;;;;13.77;3.88;;;18.50;99.90;;;;;;5073510;28;20496;-60
2023/07/12 08:27:17;;;;;;;14.77;3.95;;;18.60;99.90;;;;;;5074718;28;20060;-60
2023/07/12 08:29:43;;;;;;;11.32;3.70;;;18.50;99.90;;;;;;5074533;28;20523;-60
2023/07/12 08:32:10;;;;;;;14.88;4.07;;;18.40;99.90;;;;;;5055218;28;20048;-60
2023/07/12 08:34:36;;;;;;;15.90;4.68;;;18.70;99.90;;;;;;5073910;28;20514;-60
2023/07/12 08:37:02;;;;;;;16.77;4.30;;;18.20;99.90;;;;;;5074916;28;20052;-61
2023/07/12 08:39:28;;;;;;;19.40;5.25;;;18.30;99.90;;;;;;5057962;28;20600;-61
2023/07/12 08:41:54;;;;;;;12.73;4.20;;;18.40;99.90;;;;;;5075708;28;20040;-61
2023/07/12 08:44:22;;;;;;;13.77;4.15;;;18.30;99.90;;;;;;5074777;28;20044;-62
2023/07/12 08:46:56;;;;;;;16.40;4.00;;;18.40;99.90;;;;;;5074904;28;20408;-61
2023/07/12 08:49:24;;;;;;;15.38;4.28;;;18.20;99.90;;;;;;5073640;28;20047;-61
2023/07/12 08:51:51;;;;;;;16.23;4.55;;;18.20;99.90;;;;;;5074971;28;20118;-62
2023/07/12 08:54:22;;;;;;;17.20;4.45;;;18.20;99.90;;;;;;5074391;28;20086;-61
2023/07/12 08:56:49;;;;;;;12.73;3.78;;;18.60;99.90;;;;;;5074588;28;20443;-62
2023/07/12 08:59:16;;;;;;;13.25;3.42;;;19.30;99.90;;;;;;5073769;28;20055;-61
2023/07/12 09:01:52;;;;;;;10.65;3.35;;;19.70;99.90;;;;;;5073747;28;20123;-62
2023/07/12 09:04:25;;;;;;;14.10;3.75;;;20.10;99.90;;;;;;5072794;28;20040;-62
2023/07/12 09:06:57;;;;;;;9.98;3.00;;;19.90;99.90;;;;;;5074000;28;20108;-62
2023/07/12 09:09:23;;;;;;;11.02;3.50;;;19.90;99.90;;;;;;5074281;28;20078;-62
2023/07/12 09:11:49;;;;;;;10.70;3.10;;;19.50;99.90;;;;;;5074687;28;20055;-62
2023/07/12 09:14:22;;;;;;;12.13;3.10;;;19.50;99.90;;;;;;5054712;28;20051;-62
2023/07/12 09:16:50;;;;;;;10.55;3.08;;;19.40;99.90;;;;;;5072722;28;20087;-61
2023/07/12 09:19:27;;;;;;;11.35;3.03;;;19.20;99.90;;;;;;5072686;28;20532;-62
2023/07/12 09:22:06;;;;;;;7.63;2.53;;;19.10;99.90;;;;;;5073302;28;20046;-61
2023/07/12 09:24:32;;;;;;;9.73;2.78;;;19.10;99.90;;;;;;5073193;28;20040;-62
2023/07/12 09:27:14;;;;;;;11.35;3.00;;;19.40;99.90;;;;;;5072825;28;20523;-59
2023/07/12 09:29:40;;;;;;;9.73;3.00;;;20.10;99.90;;;;;;5073010;28;20488;-59
2023/07/12 09:32:22;;;;;;;9.70;2.33;;;20.30;99.90;;;;;;5073743;28;20040;-59
2023/07/12 09:34:50;;;;;;;15.73;4.00;;;20.70;99.90;;;;;;5072231;28;20055;-60
2023/07/12 09:37:22;;;;;;;9.38;2.60;;;20.70;99.90;;;;;;5073187;28;20485;-59
2023/07/12 09:39:55;;;;;;;8.57;2.22;;;20.60;99.90;;;;;;5072983;28;20479;-60
2023/07/12 09:42:21;;;;;;;10.60;2.30;;;21.00;99.90;;;;;;5073785;28;20101;-59
2023/07/12 09:44:48;;;;;;;9.45;2.92;;;21.20;99.90;;;;;;5072487;28;20063;-60
2023/07/12 09:47:34;;;;;;;11.55;3.08;;;21.40;99.90;;;;;;5055092;28;20055;-60
2023/07/12 09:50:23;;;;;;;7.88;2.83;;;21.90;99.90;;;;;;5073036;28;20504;-60
2023/07/12 09:53:03;;;;;;;9.45;2.50;;;21.70;99.90;;;;;;5057859;28;20223;-61
2023/07/12 09:55:57;;;;;;;7.85;2.40;;;22.00;99.90;;;;;;5072796;28;20096;-61
2023/07/12 09:58:42;;;;;;;7.35;1.95;;;22.40;99.90;;;;;;5072730;28;20144;-60
2023/07/12 10:01:22;;;;;;;8.02;1.90;;;22.80;99.90;;;;;;5071992;28;20126;-61
2023/07/12 10:03:54;;;;;;;9.05;2.58;;;22.50;99.90;;;;;;5073002;28;20140;-60
2023/07/12 10:06:49;;;;;;;6.75;1.50;;;22.10;99.90;;;;;;5072490;28;20044;-61
2023/07/12 10:09:27;;;;;;;7.50;2.20;;;21.90;99.90;;;;;;5051814;28;20451;-61
2023/07/12 10:12:23;;;;;;;6.88;2.10;;;22.00;99.90;;;;;;5074465;28;20046;-60
2023/07/12 10:14:52;;;;;;;7.82;1.92;;;22.20;99.90;;;;;;5055780;28;20101;-61
2023/07/12 10:17:25;;;;;;;8.80;2.38;;;22.40;99.90;;;;;;5072924;28;20080;-61
2023/07/12 10:19:54;;;;;;;6.15;1.92;;;22.80;99.90;;;;;;5072817;28;20577;-61
2023/07/12 10:22:28;;;;;;;6.22;1.70;;;22.90;99.90;;;;;;5072803;28;20044;-62
2023/07/12 10:24:56;;;;;;;6.38;1.80;;;22.80;99.90;;;;;;5073754;28;20145;-62
2023/07/12 10:27:27;;;;;;;7.93;1.83;;;22.70;99.90;;;;;;5073196;28;20044;-62
2023/07/12 10:30:05;;;;;;;6.63;1.80;;;22.60;99.90;;;;;;5072725;28;20329;-62
2023/07/12 10:32:59;;;;;;;12.93;2.33;;;22.30;99.90;;;;;;5054077;28;20054;-63
2023/07/12 10:35:36;;;;;;;10.30;1.92;;;22.50;99.90;;;;;;5071693;28;20506;-62
2023/07/12 10:38:08;;;;;;;5.55;1.85;;;23.10;99.90;;;;;;5071294;28;20036;-61
2023/07/12 10:40:42;;;;;;;6.53;1.98;;;23.40;99.90;;;;;;5072531;28;20364;-62
2023/07/12 10:43:21;;;;;;;8.60;1.80;;;23.70;99.90;;;;;;5073660;28;20052;-62
2023/07/12 10:45:50;;;;;;;6.97;1.83;;;23.50;99.90;;;;;;5054271;28;20036;-62
2023/07/12 10:48:22;;;;;;;8.32;2.38;;;23.30;99.90;;;;;;5072427;28;20626;-62
2023/07/12 10:50:49;;;;;;;7.63;1.80;;;23.30;99.90;;;;;;5071415;28;20220;-62
2023/07/12 10:53:22;;;;;;;7.25;2.03;;;23.40;99.90;;;;;;5072644;28;20052;-62
2023/07/12 10:56:32;;;;;;;4.38;1.27;;;23.50;99.90;;;;;;5071459;28;21806;-63
2023/07/12 10:59:04;;;;;;;7.20;1.65;;;23.20;99.90;;;;;;4983055;28;20042;-61
2023/07/12 11:01:42;;;;;;;10.70;2.10;;;23.20;99.90;;;;;;5063342;28;20094;-62
2023/07/12 11:04:11;;;;;;;9.75;1.80;;;23.40;99.90;;;;;;5071549;28;20532;-62
2023/07/12 11:07:00;;;;;;;8.57;2.20;;;23.40;99.90;;;;;;5072060;28;20115;-62
2023/07/12 11:09:49;;;;;;;18.02;1.90;;;23.50;99.90;;;;;;5071578;28;20119;-61
2023/07/12 11:12:16;;;;;;;4.57;1.10;;;23.80;99.90;;;;;;5024273;28;20055;-62
2023/07/12 11:14:50;;;;;;;6.25;1.10;;;23.80;99.90;;;;;;5072636;28;20036;-63
2023/07/12 11:17:28;;;;;;;4.15;1.10;;;24.10;99.90;;;;;;5071641;28;20127;-61
2023/07/12 11:20:05;;;;;;;3.55;1.30;;;23.80;99.90;;;;;;5072162;28;20532;-62
2023/07/12 11:22:55;;;;;;;10.60;1.60;;;24.10;99.90;;;;;;5071785;28;20120;-61
2023/07/12 11:25:27;;;;;;;3.92;1.52;;;24.30;99.90;;;;;;5072309;28;20733;-65
2023/07/12 11:27:55;;;;;;;5.53;1.30;;;24.30;99.90;;;;;;5072301;28;20044;-61
2023/07/12 11:30:27;;;;;;;5.45;1.30;;;24.00;99.90;;;;;;5072225;28;20505;-62
2023/07/12 11:33:27;;;;;;;9.30;1.63;;;24.00;99.90;;;;;;5072308;28;20106;-62
2023/07/12 11:36:06;;;;;;;6.60;1.45;;;24.10;99.90;;;;;;5054289;28;20559;-62
2023/07/12 11:38:34;;;;;;;5.47;1.30;;;24.30;99.90;;;;;;5071248;28;20039;-61
2023/07/12 11:41:07;;;;;;;5.53;1.27;;;24.30;99.90;;;;;;5072763;28;20047;-61
2023/07/12 11:43:37;;;;;;;6.72;1.38;;;24.30;99.90;;;;;;5071645;28;20580;-60
2023/07/12 11:46:12;;;;;;;4.88;1.35;;;24.10;99.90;;;;;;5072756;28;21885;-61
2023/07/12 11:48:42;;;;;;;4.43;1.20;;;23.60;99.90;;;;;;5075247;28;20036;-60
2023/07/12 11:51:15;;;;;;;5.50;1.80;;;23.50;99.90;;;;;;5074747;28;20467;-60
2023/07/12 11:53:59;;;;;;;6.13;1.52;;;23.70;99.90;;;;;;5074794;28;20056;-60
2023/07/12 11:56:25;;;;;;;7.20;1.38;;;23.50;99.90;;;;;;5074776;28;20071;-61
2023/07/12 11:58:51;;;;;;;5.47;1.13;;;23.40;99.90;;;;;;5057712;28;20116;-61
2023/07/12 12:01:20;;;;;;;8.07;1.15;;;23.40;99.90;;;;;;5074716;28;20497;-60
2023/07/12 12:03:51;;;;;;;4.60;1.25;;;23.10;99.90;;;;;;5074075;28;20135;-60
2023/07/12 12:06:18;;;;;;;4.53;1.00;;;23.10;99.90;;;;;;5056239;28;20040;-60
2023/07/12 12:08:54;;;;;;;5.30;1.23;;;22.70;99.90;;;;;;5074486;28;20433;-61
2023/07/12 12:11:21;;;;;;;5.63;1.00;;;23.10;99.90;;;;;;5075220;28;20501;-61
2023/07/12 12:13:56;;;;;;;4.30;1.13;;;23.20;99.90;;;;;;5074977;28;20100;-60
2023/07/12 12:16:27;;;;;;;3.97;1.10;;;22.80;99.90;;;;;;5073952;28;20083;-60
2023/07/12 12:19:15;;;;;;;4.75;1.10;;;22.80;99.90;;;;;;5073921;28;20128;-59
2023/07/12 12:21:52;;;;;;;4.38;0.85;;;23.10;99.90;;;;;;5074664;28;20072;-60
2023/07/12 12:24:20;;;;;;;4.25;1.00;;;23.40;99.90;;;;;;5075132;28;20035;-60
2023/07/12 12:26:48;;;;;;;6.18;0.90;;;24.50;99.90;;;;;;5056429;28;20051;-59
2023/07/12 12:29:20;;;;;;;6.25;0.90;;;23.70;99.90;;;;;;5074849;28;20113;-59
2023/07/12 12:32:02;;;;;;;;;;;23.90;99.90;;;;;;5075585;28;20051;-60
2023/07/12 12:34:38;;;;;;;5.75;0.60;;;24.00;99.90;;;;;;5073399;28;19971;-59
2023/07/12 12:37:06;;;;;;;6.85;1.10;;;23.90;99.90;;;;;;5074025;28;20121;-60
2023/07/12 12:39:33;;;;;;;4.47;0.80;;;23.80;99.90;;;;;;5074840;28;20067;-59
2023/07/12 12:42:06;;;;;;;6.85;1.05;;;24.20;99.90;;;;;;5076251;28;20131;-60
2023/07/12 12:44:36;;;;;;;4.97;1.45;;;23.70;99.90;;;;;;5074376;28;20118;-60
2023/07/12 12:47:15;;;;;;;3.88;0.90;;;23.40;99.90;;;;;;5074584;28;20052;-59
2023/07/12 12:49:41;;;;;;;2.22;0.65;;;23.80;99.90;;;;;;5075049;28;20461;-59
2023/07/12 12:52:24;;;;;;;5.75;1.15;;;23.70;99.90;;;;;;5074767;28;20074;-59